createdAt,value
2019-06-15T00:01:49.529Z,14.50
2019-06-15T00:04:45.669Z,15.23
2019-06-15T00:07:42.163Z,12.77
2019-06-15T00:10:38.596Z,20.47
2019-06-15T00:13:35.418Z,12.53
2019-06-15T00:16:31.959Z,13.03
2019-06-15T00:19:27.707Z,13.00
2019-06-15T00:22:23.919Z,12.73
2019-06-15T00:25:20.902Z,15.23
2019-06-15T00:28:16.753Z,14.47
2019-06-15T00:31:13.315Z,13.60
2019-06-15T00:34:10.127Z,16.40
2019-06-15T00:37:06.399Z,12.80
2019-06-15T00:40:02.166Z,14.27
2019-06-15T00:42:58.883Z,13.50
2019-06-15T00:45:54.958Z,12.63
2019-06-15T00:48:51.032Z,15.80
2019-06-15T00:51:47.354Z,13.77
2019-06-15T00:54:50.342Z,14.17
2019-06-15T00:57:41.331Z,14.27
2019-06-15T01:00:38.868Z,15.37
2019-06-15T01:03:35.946Z,15.00
2019-06-15T01:06:32.560Z,16.73
2019-06-15T01:09:28.749Z,19.33
2019-06-15T01:12:25.248Z,14.87
2019-06-15T01:15:22.064Z,17.37
2019-06-15T01:18:17.744Z,18.33
2019-06-15T01:21:13.982Z,22.10
2019-06-15T01:24:10.674Z,19.80
2019-06-15T01:27:06.819Z,23.27
2019-06-15T01:30:03.496Z,19.57
2019-06-15T01:32:59.491Z,22.50
2019-06-15T01:35:55.116Z,19.43
2019-06-15T01:38:53.076Z,20.27
2019-06-15T01:41:49.406Z,20.67
2019-06-15T01:44:45.251Z,21.63
2019-06-15T01:47:41.935Z,23.40
2019-06-15T01:50:37.408Z,25.43
2019-06-15T01:53:33.399Z,20.43
2019-06-15T01:56:29.113Z,22.27
2019-06-15T01:59:25.946Z,24.07
2019-06-15T02:02:21.624Z,24.93
2019-06-15T02:05:18.691Z,22.07
2019-06-15T02:08:15.316Z,25.70
2019-06-15T02:11:11.723Z,21.47
2019-06-15T02:14:08.316Z,23.13
2019-06-15T02:17:04.743Z,23.77
2019-06-15T02:20:01.317Z,22.03
2019-06-15T02:22:57.699Z,22.07
2019-06-15T02:25:54.440Z,25.87
2019-06-15T02:28:51.161Z,27.27
2019-06-15T02:31:47.112Z,24.70
2019-06-15T02:34:43.494Z,22.60
2019-06-15T02:37:39.822Z,22.87
2019-06-15T02:40:36.139Z,22.13
2019-06-15T02:43:32.764Z,24.00
2019-06-15T02:46:29.636Z,22.20
2019-06-15T02:49:25.725Z,25.67
2019-06-15T02:52:22.675Z,23.83
2019-06-15T02:55:19.825Z,27.87
2019-06-15T02:58:15.900Z,23.70
2019-06-15T03:01:11.981Z,26.57
2019-06-15T03:04:07.434Z,24.97
2019-06-15T03:07:03.100Z,26.23
2019-06-15T03:09:59.489Z,25.17
2019-06-15T03:12:56.364Z,25.80
2019-06-15T03:15:52.881Z,23.37
2019-06-15T03:18:49.442Z,27.47
2019-06-15T03:21:44.911Z,24.43
2019-06-15T03:24:41.102Z,25.20
2019-06-15T03:27:37.705Z,28.63
2019-06-15T03:30:34.327Z,28.63
2019-06-15T03:33:30.620Z,26.57
2019-06-15T03:36:27.282Z,25.63
2019-06-15T03:39:23.533Z,27.37
2019-06-15T03:42:19.643Z,26.63
2019-06-15T03:45:15.135Z,26.70
2019-06-15T03:48:11.575Z,30.60
2019-06-15T03:51:08.043Z,24.23
2019-06-15T03:54:03.412Z,29.20
2019-06-15T03:56:59.052Z,30.00
2019-06-15T03:59:55.342Z,25.33
2019-06-15T04:02:51.813Z,25.90
2019-06-15T04:05:48.261Z,24.13
2019-06-15T04:08:44.937Z,27.83
2019-06-15T04:11:41.196Z,25.73
2019-06-15T04:14:37.745Z,25.40
2019-06-15T04:17:34.325Z,25.07
2019-06-15T04:20:30.218Z,25.13
2019-06-15T04:23:26.239Z,28.40
2019-06-15T04:26:35.294Z,28.40
2019-06-15T04:29:20.226Z,26.13
2019-06-15T04:32:16.700Z,32.80
2019-06-15T04:35:13.347Z,27.13
2019-06-15T04:38:10.354Z,27.60
2019-06-15T04:41:08.175Z,26.00
2019-06-15T04:44:05.197Z,28.17
2019-06-15T04:47:01.838Z,27.20
2019-06-15T04:49:57.447Z,24.50
2019-06-15T04:52:54.120Z,24.33
2019-06-15T04:55:49.710Z,27.57
2019-06-15T04:58:45.760Z,26.43
2019-06-15T05:01:42.677Z,22.90
2019-06-15T05:04:38.797Z,26.20
2019-06-15T05:07:35.472Z,23.43
2019-06-15T05:10:31.780Z,25.27
2019-06-15T05:13:27.825Z,24.93
2019-06-15T05:16:23.421Z,22.90
2019-06-15T05:19:19.987Z,22.17
2019-06-15T05:22:18.316Z,24.87
2019-06-15T05:25:15.391Z,22.30
2019-06-15T05:28:11.425Z,23.13
2019-06-15T05:31:07.129Z,27.07
2019-06-15T05:34:02.731Z,24.07
2019-06-15T05:36:59.177Z,23.10
2019-06-15T05:39:56.278Z,23.87
2019-06-15T05:42:51.958Z,21.53
2019-06-15T05:45:48.301Z,23.43
2019-06-15T05:48:45.052Z,22.73
2019-06-15T05:51:41.339Z,19.50
2019-06-15T05:54:37.508Z,23.13
2019-06-15T05:57:33.249Z,19.70
2019-06-15T06:00:29.282Z,23.97
2019-06-15T06:03:25.636Z,26.03
2019-06-15T06:06:21.957Z,22.77
2019-06-15T06:09:17.862Z,23.33
2019-06-15T06:12:15.830Z,23.27
2019-06-15T06:15:12.612Z,19.50
2019-06-15T06:18:08.319Z,20.40
2019-06-15T06:21:04.768Z,21.63
2019-06-15T06:24:01.238Z,23.43
2019-06-15T06:26:57.578Z,20.13
2019-06-15T06:29:54.192Z,18.87
2019-06-15T06:32:50.590Z,23.53
2019-06-15T06:35:47.301Z,20.20
2019-06-15T06:38:45.832Z,19.77
2019-06-15T06:41:41.779Z,21.57
2019-06-15T06:44:38.310Z,19.57
2019-06-15T06:47:34.345Z,20.63
2019-06-15T06:50:31.230Z,19.03
2019-06-15T06:53:26.773Z,18.67
2019-06-15T06:56:22.877Z,20.10
2019-06-15T06:59:18.591Z,20.80
2019-06-15T07:02:15.203Z,23.97
2019-06-15T07:05:11.879Z,18.00
2019-06-15T07:08:07.991Z,17.13
2019-06-15T07:11:04.607Z,19.67
2019-06-15T07:14:01.203Z,20.07
2019-06-15T07:16:57.688Z,17.00
2019-06-15T07:19:54.242Z,18.50
2019-06-15T07:22:50.863Z,19.57
2019-06-15T07:25:47.493Z,17.87
2019-06-15T07:28:43.999Z,20.63
2019-06-15T07:31:40.724Z,20.20
2019-06-15T07:34:37.269Z,17.63
2019-06-15T07:37:33.628Z,17.37
2019-06-15T07:40:30.203Z,16.57
2019-06-15T07:43:26.793Z,17.93
2019-06-15T07:46:23.280Z,17.07
2019-06-15T07:49:19.841Z,17.47
2019-06-15T07:52:15.620Z,22.43
2019-06-15T07:55:12.124Z,16.87
2019-06-15T07:58:23.356Z,18.03
2019-06-15T08:01:06.118Z,20.37
2019-06-15T08:04:02.778Z,19.33
2019-06-15T08:06:58.464Z,24.27
2019-06-15T08:09:55.756Z,17.13
2019-06-15T08:12:52.604Z,19.73
2019-06-15T08:15:48.600Z,16.37
2019-06-15T08:18:46.908Z,25.73
2019-06-15T08:21:43.300Z,17.27
2019-06-15T08:24:39.237Z,17.30
2019-06-15T08:27:35.022Z,17.33
2019-06-15T08:30:45.978Z,14.53
2019-06-15T08:33:44.708Z,13.33
2019-06-15T08:36:40.079Z,13.83
2019-06-15T08:39:35.701Z,17.23
2019-06-15T08:42:31.013Z,12.57
2019-06-15T08:45:27.322Z,16.90
2019-06-15T08:48:23.980Z,12.77
2019-06-15T08:51:19.744Z,13.20
2019-06-15T08:54:16.191Z,15.20
2019-06-15T08:57:12.385Z,15.83
2019-06-15T09:00:10.540Z,14.37
2019-06-15T09:03:07.042Z,16.43
2019-06-15T09:06:04.752Z,14.70
2019-06-15T09:09:01.538Z,17.90
2019-06-15T09:11:59.671Z,17.13
2019-06-15T09:14:56.026Z,15.90
2019-06-15T09:17:56.049Z,15.27
2019-06-15T09:20:52.796Z,16.30
2019-06-15T09:23:49.507Z,13.87
2019-06-15T09:26:46.424Z,17.90
2019-06-15T09:29:44.642Z,14.70
2019-06-15T09:32:40.194Z,15.93
2019-06-15T09:35:35.465Z,15.40
2019-06-15T09:38:31.812Z,14.70
2019-06-15T09:41:27.817Z,14.47
2019-06-15T09:44:23.414Z,16.77
2019-06-15T09:47:19.831Z,16.90
2019-06-15T09:50:16.085Z,17.87
2019-06-15T09:53:12.605Z,12.27
2019-06-15T09:56:09.338Z,13.10
2019-06-15T09:59:05.585Z,12.63
2019-06-15T10:02:01.872Z,15.03
2019-06-15T10:04:59.261Z,19.17
2019-06-15T10:07:55.779Z,14.70
2019-06-15T10:10:52.421Z,17.90
2019-06-15T10:13:48.680Z,13.97
2019-06-15T10:16:44.424Z,15.73
2019-06-15T10:19:41.073Z,14.30
2019-06-15T10:22:36.876Z,19.80
2019-06-15T10:25:32.583Z,12.80
2019-06-15T10:28:29.178Z,14.97
2019-06-15T10:31:25.593Z,21.17
2019-06-15T10:34:21.849Z,16.27
2019-06-15T10:37:18.411Z,16.83
2019-06-15T10:40:14.769Z,14.07
2019-06-15T10:43:10.600Z,15.07
2019-06-15T10:46:07.353Z,14.27
2019-06-15T10:49:03.882Z,17.07
2019-06-15T10:52:00.523Z,13.07
2019-06-15T10:54:57.333Z,18.17
2019-06-15T10:57:53.953Z,14.73
2019-06-15T11:00:50.544Z,15.00
2019-06-15T11:03:50.553Z,14.60
2019-06-15T11:06:54.541Z,15.90
2019-06-15T11:09:45.817Z,17.93
2019-06-15T11:12:46.768Z,15.97
2019-06-15T11:15:42.260Z,21.63
2019-06-15T11:18:43.057Z,21.17
2019-06-15T11:21:39.434Z,17.47
2019-06-15T11:24:34.803Z,15.53
2019-06-15T11:27:31.438Z,13.07
2019-06-15T11:30:28.165Z,14.73
2019-06-15T11:33:25.664Z,15.03
2019-06-15T11:36:22.639Z,15.03
2019-06-15T11:39:18.789Z,16.60
2019-06-15T11:42:15.235Z,12.27
2019-06-15T11:45:11.025Z,17.43
2019-06-15T11:48:06.962Z,17.90
2019-06-15T11:51:03.754Z,17.53
2019-06-15T11:54:00.147Z,13.40
2019-06-15T11:56:56.972Z,13.13
2019-06-15T11:59:52.728Z,11.00
2019-06-15T12:02:48.555Z,16.30
2019-06-15T12:05:45.072Z,10.03
2019-06-15T12:08:41.273Z,12.33
2019-06-15T12:11:37.767Z,11.30
2019-06-15T12:14:34.070Z,13.80
2019-06-15T12:17:30.188Z,13.13
2019-06-15T12:20:25.914Z,14.23
2019-06-15T12:23:22.849Z,10.10
2019-06-15T12:26:18.890Z,14.37
2019-06-15T12:29:14.355Z,14.17
2019-06-15T12:32:10.795Z,11.07
2019-06-15T12:35:08.127Z,14.53
2019-06-15T12:38:03.865Z,8.53
2019-06-15T12:41:00.484Z,16.83
2019-06-15T12:43:58.021Z,17.23
2019-06-15T12:46:55.809Z,11.67
2019-06-15T12:49:52.802Z,14.87
2019-06-15T12:52:49.642Z,20.43
2019-06-15T12:55:45.087Z,17.07
2019-06-15T12:58:40.810Z,13.77
2019-06-15T13:01:38.902Z,18.30
2019-06-15T13:04:45.737Z,20.13
2019-06-15T13:07:43.386Z,15.37
2019-06-15T13:10:43.686Z,18.27
2019-06-15T13:13:39.814Z,12.10
2019-06-15T13:16:39.633Z,13.67
2019-06-15T13:19:34.100Z,19.50
2019-06-15T13:22:30.582Z,20.13
2019-06-15T13:25:26.838Z,17.87
2019-06-15T13:28:23.406Z,12.07
2019-06-15T13:31:18.935Z,14.37
2019-06-15T13:34:14.063Z,15.30
2019-06-15T13:37:10.558Z,14.10
2019-06-15T13:40:06.943Z,7.30
2019-06-15T13:43:02.272Z,9.43
2019-06-15T13:45:58.714Z,10.60
2019-06-15T13:48:55.343Z,16.40
2019-06-15T13:51:50.937Z,12.90
2019-06-15T13:54:48.089Z,10.30
2019-06-15T13:57:44.800Z,11.60
2019-06-15T14:00:40.587Z,10.17
2019-06-15T14:03:36.587Z,10.07
2019-06-15T14:06:32.925Z,11.33
2019-06-15T14:09:29.610Z,8.77
2019-06-15T14:12:25.980Z,7.73
2019-06-15T14:15:21.688Z,8.53
2019-06-15T14:18:18.111Z,7.07
2019-06-15T14:21:14.472Z,7.90
2019-06-15T14:24:10.310Z,6.63
2019-06-15T14:27:06.112Z,9.87
2019-06-15T14:30:02.451Z,9.17
2019-06-15T14:32:58.333Z,8.60
2019-06-15T14:35:54.431Z,10.30
2019-06-15T14:38:49.872Z,8.27
2019-06-15T14:41:50.915Z,7.37
2019-06-15T14:44:45.510Z,9.20
2019-06-15T14:47:41.265Z,7.50
2019-06-15T14:50:37.098Z,10.93
2019-06-15T14:53:35.496Z,8.63
2019-06-15T14:56:30.676Z,7.13
2019-06-15T14:59:27.260Z,11.67
2019-06-15T15:02:26.113Z,8.20
2019-06-15T15:05:21.338Z,11.30
2019-06-15T15:08:16.920Z,10.73
2019-06-15T15:11:17.067Z,12.17
2019-06-15T15:14:13.116Z,11.57
2019-06-15T15:17:09.631Z,14.10
2019-06-15T15:20:07.160Z,12.97
2019-06-15T15:23:03.014Z,9.47
2019-06-15T15:25:58.175Z,12.03
2019-06-15T15:28:56.613Z,8.83
2019-06-15T15:31:52.103Z,8.83
2019-06-15T15:34:48.382Z,7.90
2019-06-15T15:37:46.184Z,11.07
2019-06-15T15:40:41.673Z,9.43
2019-06-15T15:43:37.872Z,10.67
2019-06-15T15:46:34.224Z,9.30
2019-06-15T15:49:30.638Z,7.97
2019-06-15T15:52:26.981Z,11.03
2019-06-15T15:55:26.503Z,5.47
2019-06-15T15:58:22.464Z,9.63
2019-06-15T16:01:19.524Z,11.57
2019-06-15T16:04:18.204Z,7.47
2019-06-15T16:07:13.771Z,10.23
2019-06-15T16:10:09.286Z,9.17
2019-06-15T16:13:06.438Z,7.50
2019-06-15T16:16:02.995Z,8.70
2019-06-15T16:19:00.984Z,5.07
2019-06-15T16:21:57.988Z,6.33
2019-06-15T16:24:56.312Z,8.13
2019-06-15T16:27:51.427Z,8.33
2019-06-15T16:31:05.179Z,8.40
2019-06-15T16:33:46.498Z,24.47
2019-06-15T16:36:42.885Z,4.63
2019-06-15T16:39:39.216Z,8.40
2019-06-15T16:42:36.686Z,8.33
2019-06-15T16:45:33.002Z,14.17
2019-06-15T16:48:29.153Z,7.37
2019-06-15T16:51:26.838Z,12.43
2019-06-15T16:54:21.456Z,10.87
2019-06-15T16:57:17.509Z,11.47
2019-06-15T17:00:20.920Z,5.93
2019-06-15T17:03:22.059Z,4.93
2019-06-15T17:06:14.445Z,5.43
2019-06-15T17:09:11.026Z,4.83
2019-06-15T17:12:07.530Z,5.53
2019-06-15T17:15:13.327Z,5.43
2019-06-15T17:18:10.187Z,10.67
2019-06-15T17:21:07.181Z,6.77
2019-06-15T17:24:06.786Z,2.77
2019-06-15T17:27:03.106Z,2.70
2019-06-15T17:29:58.815Z,11.53
2019-06-15T17:32:56.564Z,2.93
2019-06-15T17:35:58.745Z,2.90
2019-06-15T17:38:48.887Z,6.37
2019-06-15T17:41:47.276Z,4.17
2019-06-15T17:44:42.783Z,5.03
2019-06-15T17:47:39.048Z,3.50
2019-06-15T17:50:43.988Z,5.00
2019-06-15T17:53:40.087Z,5.70
2019-06-15T17:56:36.775Z,3.77
2019-06-15T17:59:36.290Z,4.50
2019-06-15T18:02:30.983Z,3.13
2019-06-15T18:05:27.506Z,4.80
2019-06-15T18:08:26.776Z,2.77
2019-06-15T18:11:22.513Z,4.10
2019-06-15T18:14:18.828Z,4.33
2019-06-15T18:17:17.002Z,5.37
2019-06-15T18:20:16.166Z,2.53
2019-06-15T18:23:12.695Z,4.37
2019-06-15T18:26:08.456Z,4.03
2019-06-15T18:29:03.691Z,2.73
2019-06-15T18:32:03.407Z,2.13
2019-06-15T18:34:59.149Z,3.00
2019-06-15T18:37:56.763Z,6.17
2019-06-15T18:40:52.510Z,4.03
2019-06-15T18:43:48.067Z,4.13
2019-06-15T18:46:46.587Z,4.90
2019-06-15T18:49:43.198Z,7.03
2019-06-15T18:52:38.823Z,3.47
2019-06-15T18:55:36.862Z,2.33
2019-06-15T18:58:32.343Z,3.80
2019-06-15T19:01:28.820Z,5.87
2019-06-15T19:04:30.641Z,2.30
2019-06-15T19:07:22.340Z,3.00
2019-06-15T19:10:33.079Z,4.63
2019-06-15T19:13:29.720Z,3.10
2019-06-15T19:16:26.228Z,3.90
2019-06-15T19:19:22.669Z,2.73
2019-06-15T19:22:18.422Z,5.87
2019-06-15T19:25:16.175Z,4.60
2019-06-15T19:28:12.710Z,2.43
2019-06-15T19:31:09.041Z,2.37
2019-06-15T19:34:06.777Z,5.17
2019-06-15T19:37:02.494Z,2.27
2019-06-15T19:39:59.058Z,7.77
2019-06-15T19:42:57.015Z,2.70
2019-06-15T19:45:53.456Z,4.37
2019-06-15T19:48:49.940Z,4.60
2019-06-15T19:51:47.317Z,2.80
2019-06-15T19:54:43.813Z,2.30
2019-06-15T19:57:40.720Z,2.27
2019-06-15T20:00:37.584Z,3.93
2019-06-15T20:03:36.312Z,3.17
2019-06-15T20:06:32.941Z,2.63
2019-06-15T20:09:29.120Z,3.10
2019-06-15T20:12:26.468Z,2.50
2019-06-15T20:15:25.919Z,5.33
2019-06-15T20:18:19.940Z,4.57
2019-06-15T20:21:16.528Z,2.90
2019-06-15T20:24:12.771Z,3.90
2019-06-15T20:27:10.346Z,2.77
2019-06-15T20:30:08.807Z,5.50
2019-06-15T20:33:07.526Z,4.00
2019-06-15T20:36:02.710Z,6.03
2019-06-15T20:39:00.918Z,5.63
2019-06-15T20:41:57.827Z,3.10
2019-06-15T20:44:53.836Z,3.37
2019-06-15T20:47:55.991Z,3.97
2019-06-15T20:50:53.111Z,6.30
2019-06-15T20:53:49.532Z,4.00
2019-06-15T20:56:46.321Z,5.73
2019-06-15T20:59:42.129Z,5.87
2019-06-15T21:02:38.627Z,4.33
2019-06-15T21:05:41.048Z,3.20
2019-06-15T21:08:36.170Z,2.97
2019-06-15T21:11:29.919Z,2.47
2019-06-15T21:14:27.303Z,4.73
2019-06-15T21:17:23.146Z,4.83
2019-06-15T21:20:19.996Z,3.97
2019-06-15T21:23:17.359Z,4.13
2019-06-15T21:26:16.408Z,7.17
2019-06-15T21:29:16.593Z,4.87
2019-06-15T21:32:12.208Z,5.53
2019-06-15T21:35:08.751Z,6.53
2019-06-15T21:38:06.491Z,6.30
2019-06-15T21:41:02.662Z,6.20
2019-06-15T21:43:57.945Z,5.40
2019-06-15T21:46:56.256Z,5.87
2019-06-15T21:49:52.139Z,6.67
2019-06-15T21:52:48.509Z,9.03
2019-06-15T21:55:47.165Z,7.20
2019-06-15T21:58:43.659Z,7.17
2019-06-15T22:01:40.190Z,6.23
2019-06-15T22:04:36.788Z,10.63
2019-06-15T22:07:33.128Z,5.90
2019-06-15T22:10:28.701Z,5.30
2019-06-15T22:13:26.564Z,5.97
2019-06-15T22:16:23.065Z,7.47
2019-06-15T22:19:20.123Z,4.73
2019-06-15T22:22:16.716Z,5.30
2019-06-15T22:25:15.841Z,5.40
2019-06-15T22:28:10.971Z,5.83
2019-06-15T22:31:06.860Z,6.20
2019-06-15T22:34:03.727Z,7.33
2019-06-15T22:37:00.556Z,5.40
2019-06-15T22:39:56.247Z,6.47
2019-06-15T22:42:52.848Z,8.80
2019-06-15T22:45:50.149Z,6.03
2019-06-15T22:48:47.250Z,6.57
2019-06-15T22:51:45.902Z,6.73
2019-06-15T22:54:41.328Z,6.67
2019-06-15T22:57:38.019Z,6.03
2019-06-15T23:00:34.388Z,6.10
2019-06-15T23:03:29.997Z,5.10
2019-06-15T23:06:37.050Z,6.27
2019-06-15T23:09:23.641Z,5.37
2019-06-15T23:12:19.944Z,6.47
2019-06-15T23:15:17.532Z,5.20
2019-06-15T23:18:14.293Z,5.30
2019-06-15T23:21:10.446Z,5.77
2019-06-15T23:24:06.830Z,6.70
2019-06-15T23:27:03.524Z,6.07
2019-06-15T23:29:59.763Z,5.30
2019-06-15T23:32:56.682Z,4.67
2019-06-15T23:35:58.814Z,4.90
2019-06-15T23:38:57.125Z,6.10
2019-06-15T23:41:52.600Z,7.50
2019-06-15T23:44:49.234Z,6.97
2019-06-15T23:47:46.645Z,5.60
2019-06-15T23:50:46.380Z,4.73
2019-06-15T23:53:46.300Z,4.87
2019-06-15T23:56:43.466Z,5.43
2019-06-15T23:59:39.546Z,4.23
